createdAt,value
2023-05-08T00:02:05.580Z,100309.50
2023-05-08T00:07:07.316Z,100312.47
2023-05-08T00:12:09.103Z,100311.09
2023-05-08T00:17:10.885Z,100314.47
2023-05-08T00:22:12.773Z,100317.31
2023-05-08T00:27:14.681Z,100316.38
2023-05-08T00:32:17.343Z,100319.09
2023-05-08T00:37:19.220Z,100309.00
2023-05-08T00:42:21.112Z,100312.25
2023-05-08T00:47:23.543Z,100307.94
2023-05-08T00:52:27.861Z,100306.88
2023-05-08T00:57:32.462Z,100308.34
2023-05-08T01:02:36.111Z,100312.44
2023-05-08T01:07:39.091Z,100315.19
2023-05-08T01:13:06.498Z,100314.22
2023-05-08T01:18:31.251Z,100324.56
2023-05-08T01:23:49.798Z,100329.41
2023-05-08T01:29:23.556Z,100321.31
2023-05-08T01:34:31.252Z,100325.41
2023-05-08T01:40:03.352Z,100335.09
2023-05-08T01:45:16.394Z,100330.06
2023-05-08T01:50:25.828Z,100335.16
2023-05-08T01:55:34.684Z,100338.06
2023-05-08T02:00:39.608Z,100339.25
2023-05-08T02:05:42.981Z,100334.44
2023-05-08T02:10:48.438Z,100341.00
2023-05-08T02:15:52.732Z,100334.31
2023-05-08T02:20:57.743Z,100328.00
2023-05-08T02:26:01.618Z,100344.09
2023-05-08T02:31:05.660Z,100345.03
2023-05-08T02:36:10.907Z,100360.69
2023-05-08T02:41:14.347Z,100357.00
2023-05-08T02:46:21.138Z,100367.34
2023-05-08T02:51:37.887Z,100369.34
2023-05-08T02:56:47.520Z,100364.94
2023-05-08T03:01:52.113Z,100361.47
2023-05-08T03:06:56.900Z,100366.88
2023-05-08T03:12:06.520Z,100363.91
2023-05-08T03:17:12.792Z,100362.09
2023-05-08T03:22:16.463Z,100363.78
2023-05-08T03:27:20.488Z,100368.94
2023-05-08T03:32:26.136Z,100367.34
2023-05-08T03:37:28.832Z,100373.84
2023-05-08T03:42:31.470Z,100376.06
2023-05-08T03:47:37.160Z,100372.91
2023-05-08T03:52:39.295Z,100370.94
2023-05-08T03:57:50.477Z,100366.41
2023-05-08T04:03:11.686Z,100374.56
2023-05-08T04:08:21.534Z,100378.53
2023-05-08T04:13:28.739Z,100386.03
2023-05-08T04:18:32.613Z,100388.38
2023-05-08T04:23:38.861Z,100383.41
2023-05-08T04:28:40.897Z,100394.56
2023-05-08T04:33:46.752Z,100394.38
2023-05-08T04:38:48.864Z,100392.97
2023-05-08T04:43:50.734Z,100397.38
2023-05-08T04:48:53.447Z,100394.88
2023-05-08T04:53:55.363Z,100405.16
2023-05-08T04:58:57.805Z,100406.22
2023-05-08T05:03:59.730Z,100413.22
2023-05-08T05:09:01.729Z,100418.72
2023-05-08T05:14:03.628Z,100412.84
2023-05-08T05:19:05.668Z,100416.19
2023-05-08T05:24:08.084Z,100414.78
2023-05-08T05:29:11.375Z,100423.06
2023-05-08T05:34:14.009Z,100429.06
2023-05-08T05:39:16.470Z,100433.09
2023-05-08T05:44:18.460Z,100432.47
2023-05-08T05:49:20.451Z,100440.88
2023-05-08T05:54:22.495Z,100446.13
2023-05-08T05:59:24.898Z,100448.88
2023-05-08T06:04:27.025Z,100457.28
2023-05-08T06:09:29.168Z,100454.88
2023-05-08T06:14:31.136Z,100459.72
2023-05-08T06:19:33.563Z,100458.69
2023-05-08T06:24:36.534Z,100452.97
2023-05-08T06:29:38.433Z,100455.13
2023-05-08T06:34:40.333Z,100458.03
2023-05-08T06:39:42.105Z,100452.78
2023-05-08T06:44:43.879Z,100455.06
2023-05-08T06:49:46.259Z,100449.41
2023-05-08T06:54:48.273Z,100446.63
2023-05-08T06:59:50.032Z,100442.34
2023-05-08T07:04:51.877Z,100436.59
2023-05-08T07:09:53.625Z,100451.09
2023-05-08T07:14:56.651Z,100458.50
2023-05-08T07:19:59.782Z,100448.31
2023-05-08T07:25:01.739Z,100449.88
2023-05-08T07:30:04.490Z,100453.78
2023-05-08T07:35:10.484Z,100456.66
2023-05-08T07:40:12.864Z,100463.56
2023-05-08T07:45:14.876Z,100469.75
2023-05-08T07:50:17.618Z,100469.84
2023-05-08T07:55:20.088Z,100452.28
2023-05-08T08:00:22.033Z,100455.81
2023-05-08T08:05:23.867Z,100449.19
2023-05-08T08:10:26.078Z,100457.25
2023-05-08T08:15:31.621Z,100457.28
2023-05-08T08:20:33.831Z,100464.84
2023-05-08T08:25:35.744Z,100462.84
2023-05-08T08:30:38.248Z,100465.78
2023-05-08T08:35:40.345Z,100473.59
2023-05-08T08:40:42.471Z,100473.81
2023-05-08T08:45:44.329Z,100474.25
2023-05-08T08:50:51.221Z,100476.75
2023-05-08T08:55:56.045Z,100475.81
2023-05-08T09:01:00.468Z,100481.91
2023-05-08T09:06:03.261Z,100475.03
2023-05-08T09:11:05.082Z,100475.59
2023-05-08T09:16:07.058Z,100468.16
2023-05-08T09:21:09.057Z,100467.59
2023-05-08T09:26:10.999Z,100470.31
2023-05-08T09:31:12.766Z,100476.66
2023-05-08T09:36:26.783Z,100469.38
2023-05-08T09:41:29.959Z,100463.16
2023-05-08T09:46:34.074Z,100475.44
2023-05-08T09:51:35.815Z,100474.50
2023-05-08T09:56:39.719Z,100477.84
2023-05-08T10:01:42.129Z,100470.94
2023-05-08T10:06:44.154Z,100460.94
2023-05-08T10:11:53.225Z,100452.41
2023-05-08T10:16:55.433Z,100454.88
2023-05-08T10:22:01.327Z,100457.00
2023-05-08T10:27:07.448Z,100466.16
2023-05-08T10:32:10.754Z,100454.47
2023-05-08T10:37:13.215Z,100457.31
2023-05-08T10:42:15.326Z,100449.63
2023-05-08T10:47:26.699Z,100450.34
2023-05-08T10:52:54.157Z,100447.81
2023-05-08T10:58:06.465Z,100440.34
2023-05-08T11:03:19.902Z,100439.13
2023-05-08T11:08:27.769Z,100441.97
2023-05-08T11:13:34.163Z,100452.94
2023-05-08T11:18:48.378Z,100450.16
2023-05-08T11:24:00.413Z,100435.44
2023-05-08T11:29:02.211Z,100444.72
2023-05-08T11:34:07.800Z,100449.44
2023-05-08T11:39:17.346Z,100447.03
2023-05-08T11:44:21.456Z,100445.59
2023-05-08T11:49:29.123Z,100435.88
2023-05-08T11:54:32.080Z,100442.31
2023-05-08T11:59:37.698Z,100442.47
2023-05-08T12:04:48.799Z,100436.97
2023-05-08T12:09:50.604Z,100440.03
2023-05-08T12:14:52.521Z,100441.25
2023-05-08T12:19:59.046Z,100444.16
2023-05-08T12:25:02.878Z,100443.81
2023-05-08T12:30:09.784Z,100438.88
2023-05-08T12:35:14.064Z,100432.75
2023-05-08T12:40:34.653Z,100436.84
2023-05-08T12:45:42.463Z,100432.13
2023-05-08T12:50:47.363Z,100421.44
2023-05-08T12:55:57.593Z,100423.94
2023-05-08T13:01:10.313Z,100420.84
2023-05-08T13:06:22.507Z,100413.63
2023-05-08T13:11:33.140Z,100418.91
2023-05-08T13:16:51.998Z,100410.75
2023-05-08T13:21:54.343Z,100408.66
2023-05-08T13:26:56.151Z,100405.06
2023-05-08T13:31:58.567Z,100395.59
2023-05-08T13:37:00.748Z,100386.91
2023-05-08T13:42:02.725Z,100387.34
2023-05-08T13:47:04.530Z,100386.50
2023-05-08T13:52:06.393Z,100383.03
2023-05-08T13:57:10.915Z,100372.16
2023-05-08T14:02:12.931Z,100376.72
2023-05-08T14:07:16.022Z,100367.91
2023-05-08T14:12:17.812Z,100364.88
2023-05-08T14:17:19.560Z,100367.38
2023-05-08T14:22:21.302Z,100372.69
2023-05-08T14:27:23.075Z,100356.31
2023-05-08T14:32:24.955Z,100351.75
2023-05-08T14:37:26.821Z,100348.13
2023-05-08T14:42:28.774Z,100348.00
2023-05-08T14:47:32.519Z,100335.88
2023-05-08T14:52:34.382Z,100336.84
2023-05-08T14:57:36.488Z,100342.72
2023-05-08T15:02:39.460Z,100333.09
2023-05-08T15:07:42.332Z,100335.56
2023-05-08T15:12:44.475Z,100330.16
2023-05-08T15:17:46.779Z,100333.91
2023-05-08T15:22:49.611Z,100333.06
2023-05-08T15:27:52.976Z,100336.69
2023-05-08T15:32:55.096Z,100336.00
2023-05-08T15:38:00.683Z,100331.63
2023-05-08T15:43:04.142Z,100332.25
2023-05-08T15:48:06.459Z,100336.19
2023-05-08T15:53:08.479Z,100330.50
2023-05-08T15:58:10.274Z,100332.50
2023-05-08T16:03:12.256Z,100330.22
2023-05-08T16:08:14.231Z,100332.00
2023-05-08T16:13:16.552Z,100328.09
2023-05-08T16:18:18.501Z,100330.66
2023-05-08T16:23:20.290Z,100329.25
2023-05-08T16:28:22.036Z,100325.59
2023-05-08T16:33:23.860Z,100318.22
2023-05-08T16:38:28.041Z,100310.25
2023-05-08T16:43:29.803Z,100303.72
2023-05-08T16:48:31.571Z,100308.63
2023-05-08T16:53:33.503Z,100297.72
2023-05-08T16:58:35.414Z,100299.72
2023-05-08T17:03:37.311Z,100291.66
2023-05-08T17:08:39.177Z,100290.88
2023-05-08T17:13:43.112Z,100287.13
2023-05-08T17:18:44.881Z,100295.78
2023-05-08T17:23:47.621Z,100295.91
2023-05-08T17:28:49.436Z,100294.22
2023-05-08T17:33:51.243Z,100298.91
2023-05-08T17:38:53.088Z,100301.72
2023-05-08T17:43:55.539Z,100306.56
2023-05-08T17:48:57.277Z,100302.38
2023-05-08T17:53:59.036Z,100310.56
2023-05-08T17:59:00.969Z,100298.63
2023-05-08T18:04:03.015Z,100308.97
2023-05-08T18:09:05.612Z,100317.81
2023-05-08T18:14:07.393Z,100307.78
2023-05-08T18:19:09.196Z,100315.19
2023-05-08T18:24:10.948Z,100321.91
2023-05-08T18:29:15.332Z,100324.63
2023-05-08T18:34:17.125Z,100322.28
2023-05-08T18:39:18.957Z,100322.53
2023-05-08T18:44:20.744Z,100323.25
2023-05-08T18:49:22.705Z,100322.03
2023-05-08T18:54:26.942Z,100317.00
2023-05-08T18:59:29.011Z,100319.41
2023-05-08T19:04:30.867Z,100328.78
2023-05-08T19:09:34.028Z,100317.09
2023-05-08T19:14:35.926Z,100317.59
2023-05-08T19:19:37.718Z,100308.59
2023-05-08T19:24:39.929Z,100303.81
2023-05-08T19:29:41.756Z,100315.19
2023-05-08T19:34:43.518Z,100313.88
2023-05-08T19:39:45.305Z,100310.78
2023-05-08T19:44:47.211Z,100316.06
2023-05-08T19:49:49.855Z,100311.38
2023-05-08T19:54:51.582Z,100297.91
2023-05-08T19:59:53.322Z,100300.53
2023-05-08T20:05:21.160Z,100318.84
2023-05-08T20:10:16.872Z,100314.84
2023-05-08T20:15:18.772Z,100319.59
2023-05-08T20:20:20.536Z,100309.88
2023-05-08T20:25:22.475Z,100311.06
2023-05-08T20:30:24.329Z,100303.63
2023-05-08T20:35:26.134Z,100294.00
2023-05-08T20:40:28.174Z,100292.81
2023-05-08T20:45:30.014Z,100291.03
2023-05-08T20:50:31.898Z,100299.94
2023-05-08T20:55:33.649Z,100306.25
2023-05-08T21:00:35.754Z,100302.19
2023-05-08T21:05:37.487Z,100306.28
2023-05-08T21:10:39.678Z,100308.06
2023-05-08T21:15:41.450Z,100304.78
2023-05-08T21:20:50.016Z,100297.25
2023-05-08T21:25:53.111Z,100297.75
2023-05-08T21:30:54.959Z,100294.47
2023-05-08T21:35:56.758Z,100295.06
2023-05-08T21:41:06.422Z,100288.22
2023-05-08T21:46:09.276Z,100285.38
2023-05-08T21:51:11.364Z,100282.63
2023-05-08T21:56:13.101Z,100275.50
2023-05-08T22:01:14.969Z,100275.03
2023-05-08T22:06:16.804Z,100268.09
2023-05-08T22:11:18.620Z,100266.59
2023-05-08T22:16:20.424Z,100267.28
2023-05-08T22:21:22.320Z,100263.06
2023-05-08T22:26:24.195Z,100258.97
2023-05-08T22:31:26.021Z,100250.91
2023-05-08T22:36:28.020Z,100242.38
2023-05-08T22:41:30.557Z,100235.81
2023-05-08T22:46:33.922Z,100245.31
2023-05-08T22:51:36.189Z,100233.94
2023-05-08T22:56:38.339Z,100240.28
2023-05-08T23:01:40.363Z,100241.47
2023-05-08T23:06:42.269Z,100231.88
2023-05-08T23:11:44.166Z,100226.59
2023-05-08T23:16:46.266Z,100224.38
2023-05-08T23:21:51.033Z,100215.56
2023-05-08T23:26:53.278Z,100215.47
2023-05-08T23:31:55.375Z,100209.34
2023-05-08T23:36:57.212Z,100207.25
2023-05-08T23:41:58.983Z,100196.72
2023-05-08T23:47:01.330Z,100196.50
2023-05-08T23:52:03.085Z,100185.56
2023-05-08T23:57:05.825Z,100179.81
